Time;durP1;ratioP1;P1;durP2;ratioP2;P2;SDS_P1;SDS_P2;PMS_P1;PMS_P2;Temp;Humidity;BMP_temperature;BMP_pressure;BME280_temperature;BME280_humidity;BME280_pressure;Samples;Min_cycle;Max_cycle;Signal;HPM_P1;HPM_P2
2020/12/01 00:00:34;;;;;;;94.03;47.93;;;;;;;-3.28;69.87;95239.48;1755977;80;21198;-54
2020/12/01 00:03:03;;;;;;;99.32;49.45;;;;;;;-3.29;70.17;95241.38;1745663;81;21633;-55
2020/12/01 00:05:31;;;;;;;112.60;55.38;;;;;;;-3.26;70.22;95241.26;1758812;80;21506;-56
2020/12/01 00:08:00;;;;;;;113.10;53.55;;;;;;;-3.24;70.09;95239.00;1764327;80;21121;-55
2020/12/01 00:10:28;;;;;;;86.47;44.60;;;;;;;-3.26;69.85;95242.60;1758831;80;21149;-56
2020/12/01 00:12:56;;;;;;;91.70;46.00;;;;;;;-3.35;69.92;95239.30;1763982;80;21384;-55
2020/12/01 00:15:25;;;;;;;102.27;51.60;;;;;;;-3.37;69.92;95243.69;1757500;80;21269;-54
2020/12/01 00:17:53;;;;;;;102.53;52.23;;;;;;;-3.39;69.92;95245.92;1761533;80;21111;-54
2020/12/01 00:20:22;;;;;;;94.87;49.75;;;;;;;-3.39;69.92;95246.50;1761221;80;21177;-56
2020/12/01 00:22:52;;;;;;;77.15;43.10;;;;;;;-3.42;69.92;95245.27;1756677;80;21747;-55
2020/12/01 00:25:20;;;;;;;87.67;42.38;;;;;;;-3.40;69.91;95252.42;1741939;80;21343;-55
2020/12/01 00:27:50;;;;;;;82.30;41.60;;;;;;;-3.36;70.08;95248.48;1775968;79;21162;-55
2020/12/01 00:30:21;;;;;;;76.95;39.18;;;;;;;-3.24;69.79;95243.80;1714384;82;21639;-54
2020/12/01 00:32:49;;;;;;;78.75;41.05;;;;;;;-3.26;69.32;95253.36;1779350;79;21126;-55
2020/12/01 00:35:22;;;;;;;66.50;35.48;;;;;;;-3.34;69.29;95249.72;1782186;79;21456;-57
2020/12/01 00:37:50;;;;;;;75.63;39.97;;;;;;;-3.40;69.37;95250.31;1786656;79;21439;-55
2020/12/01 00:40:19;;;;;;;69.37;40.75;;;;;;;-3.52;69.29;95245.80;1783198;79;21201;-56
2020/12/01 00:42:47;;;;;;;59.45;32.13;;;;;;;-3.57;69.47;95247.38;1782306;79;21178;-55
2020/12/01 00:45:15;;;;;;;66.00;35.28;;;;;;;-3.62;69.55;95246.88;1791396;79;21184;-54
2020/12/01 00:47:44;;;;;;;63.78;36.33;;;;;;;-3.67;70.04;95252.48;1715240;82;21143;-55
2020/12/01 00:50:15;;;;;;;64.90;38.78;;;;;;;-3.69;70.09;95248.60;1787683;79;22329;-54
2020/12/01 00:52:43;;;;;;;63.13;37.00;;;;;;;-3.76;70.00;95247.06;1785792;79;21170;-58
2020/12/01 00:55:12;;;;;;;67.40;36.33;;;;;;;-3.90;70.20;95248.81;1789957;79;21530;-54
2020/12/01 00:57:40;;;;;;;58.83;34.95;;;;;;;-3.97;70.39;95247.84;1715854;82;21713;-62
2020/12/01 01:00:13;;;;;;;57.80;33.53;;;;;;;-4.03;70.47;95246.53;1760527;79;21198;-56
2020/12/01 01:02:54;;;;;;;65.45;35.23;;;;;;;-4.00;70.51;95248.53;1889172;75;22240;-56
2020/12/01 01:05:22;;;;;;;59.00;33.05;;;;;;;-4.08;70.64;95249.48;1860028;77;21076;-57
2020/12/01 01:07:50;;;;;;;58.45;32.63;;;;;;;-4.01;70.59;95248.31;1860333;77;22233;-55
2020/12/01 01:10:27;;;;;;;59.95;33.33;;;;;;;-3.98;70.36;95243.59;1859935;77;21188;-56
2020/12/01 01:13:02;;;;;;;62.17;32.45;;;;;;;-3.94;70.27;95245.26;1887728;76;22685;-55
2020/12/01 01:15:33;;;;;;;59.65;34.78;;;;;;;-4.00;69.90;95245.84;1774495;80;21179;-55
2020/12/01 01:18:01;;;;;;;61.02;33.70;;;;;;;-4.11;69.98;95238.84;1773129;81;21201;-55
2020/12/01 01:20:29;;;;;;;66.80;35.88;;;;;;;-4.19;69.90;95235.76;1774383;80;21127;-54
2020/12/01 01:22:58;;;;;;;67.10;36.73;;;;;;;-4.25;70.09;95240.37;1772987;81;21108;-54
2020/12/01 01:25:26;;;;;;;77.60;37.42;;;;;;;-4.23;70.06;95244.25;1774440;80;21237;-54
2020/12/01 01:27:53;;;;;;;58.65;32.63;;;;;;;-4.28;70.03;95242.39;1737076;81;21158;-54
2020/12/01 01:30:23;;;;;;;58.63;32.98;;;;;;;-4.32;70.12;95245.52;1748978;80;21193;-54
2020/12/01 01:32:51;;;;;;;53.78;32.03;;;;;;;-4.32;70.33;95249.55;1788805;80;21040;-54
2020/12/01 01:35:20;;;;;;;59.95;32.40;;;;;;;-4.29;70.27;95244.28;1789097;80;21540;-54
2020/12/01 01:37:48;;;;;;;63.38;32.93;;;;;;;-4.32;70.60;95239.60;1788822;79;21658;-55
2020/12/01 01:40:26;;;;;;;73.95;38.25;;;;;;;-4.29;70.70;95240.80;1788821;80;21091;-55
2020/12/01 01:42:54;;;;;;;74.07;37.65;;;;;;;-4.30;70.44;95248.64;1788627;78;21377;-54
2020/12/01 01:45:44;;;;;;;63.48;34.03;;;;;;;-4.37;70.28;95240.41;1788831;80;21190;-55
2020/12/01 01:48:31;;;;;;;58.65;31.17;;;;;;;-4.46;70.29;95245.14;1788992;80;21151;-54
2020/12/01 01:51:06;;;;;;;59.67;31.57;;;;;;;-4.50;70.62;95245.03;1788543;79;21190;-58
2020/12/01 01:53:37;;;;;;;74.62;39.03;;;;;;;-4.41;70.47;95242.21;1789092;80;21162;-56
2020/12/01 01:56:06;;;;;;;73.52;38.98;;;;;;;-4.38;69.99;95229.44;1788991;80;21559;-54
2020/12/01 01:58:39;;;;;;;78.87;39.20;;;;;;;-4.44;69.71;95245.58;1771457;80;21158;-54
2020/12/01 02:01:11;;;;;;;69.58;37.25;;;;;;;-4.54;69.75;95240.67;1788852;80;21155;-54
2020/12/01 02:03:43;;;;;;;88.90;39.18;;;;;;;-4.62;69.73;95239.69;1789042;79;21155;-54
2020/12/01 02:06:25;;;;;;;88.22;41.58;;;;;;;-4.67;69.83;95244.50;1789051;80;21040;-55
2020/12/01 02:08:58;;;;;;;87.60;41.40;;;;;;;-4.73;70.03;95241.84;1788569;79;21202;-55
2020/12/01 02:11:28;;;;;;;89.40;40.43;;;;;;;-4.81;70.01;95244.10;1770942;80;21175;-54
2020/12/01 02:14:21;;;;;;;87.25;39.10;;;;;;;-4.88;70.24;95243.33;1786929;79;21587;-56
2020/12/01 02:16:53;;;;;;;80.75;42.30;;;;;;;-4.89;70.37;95247.67;1749476;82;21129;-57
2020/12/01 02:19:26;;;;;;;73.40;34.55;;;;;;;-4.98;70.44;95245.69;1708999;82;21101;-57
2020/12/01 02:21:57;;;;;;;;;;;;;;;-5.01;70.88;95250.39;1711638;83;21355;-54
2020/12/01 02:24:31;;;;;;;63.38;34.27;;;;;;;-4.95;71.06;95243.09;1749052;82;20223;-54
2020/12/01 02:27:00;;;;;;;66.53;34.13;;;;;;;-4.84;70.79;95248.23;1709410;83;21161;-57
2020/12/01 02:29:34;;;;;;;62.38;33.15;;;;;;;-4.78;70.37;95247.45;1731005;82;21134;-54
2020/12/01 02:32:04;;;;;;;61.68;33.73;;;;;;;-4.76;70.35;95242.52;1779894;80;21470;-55
2020/12/01 02:34:36;;;;;;;66.15;34.53;;;;;;;-4.64;70.45;95247.88;1760694;81;21206;-54
2020/12/01 02:37:05;;;;;;;64.90;34.85;;;;;;;-4.52;70.16;95253.98;1759544;81;21134;-54
2020/12/01 02:39:34;;;;;;;82.78;40.00;;;;;;;-4.46;69.74;95249.93;1791076;80;21217;-54
2020/12/01 02:42:07;;;;;;;88.15;41.10;;;;;;;-4.52;69.38;95249.96;1791140;80;21052;-54
2020/12/01 02:44:35;;;;;;;90.65;42.20;;;;;;;-4.69;69.40;95236.02;1791250;80;21554;-54
2020/12/01 02:47:04;;;;;;;76.82;39.67;;;;;;;-4.80;69.60;95238.95;1790845;79;22388;-56
2020/12/01 02:49:33;;;;;;;92.10;43.90;;;;;;;-4.91;69.79;95240.53;1791053;79;21071;-54
2020/12/01 02:52:03;;;;;;;91.15;42.60;;;;;;;-5.03;69.67;95244.55;1790659;80;21202;-53
2020/12/01 02:54:31;;;;;;;91.53;44.90;;;;;;;-5.16;70.08;95243.02;1791080;80;21059;-54
2020/12/01 02:56:59;;;;;;;83.70;40.98;;;;;;;-5.23;69.95;95250.82;1791155;80;21087;-54
2020/12/01 02:59:27;;;;;;;77.55;40.15;;;;;;;-5.33;70.08;95243.24;1791362;80;22132;-55
2020/12/01 03:01:56;;;;;;;77.80;37.98;;;;;;;-5.38;70.54;95246.70;1791272;80;21147;-54
2020/12/01 03:04:24;;;;;;;87.70;40.25;;;;;;;-5.31;70.58;95251.73;1791244;80;21123;-53
2020/12/01 03:06:52;;;;;;;146.00;60.33;;;;;;;-5.25;70.41;95245.02;1791401;80;21052;-56
2020/12/01 03:09:20;;;;;;;100.42;44.65;;;;;;;-5.16;70.38;95241.68;1791556;80;21052;-54
2020/12/01 03:11:49;;;;;;;111.90;50.00;;;;;;;-5.05;70.59;95240.09;1791687;79;21155;-53
2020/12/01 03:14:19;;;;;;;102.65;46.80;;;;;;;-4.92;70.25;95241.64;1793224;80;21130;-54
2020/12/01 03:16:47;;;;;;;135.97;58.15;;;;;;;-4.94;70.26;95238.53;1793190;80;21131;-54
2020/12/01 03:19:16;;;;;;;248.43;93.25;;;;;;;-4.89;70.33;95235.60;1793201;80;21606;-54
2020/12/01 03:21:44;;;;;;;234.37;95.40;;;;;;;-4.86;70.28;95238.41;1793217;80;21178;-54
2020/12/01 03:24:12;;;;;;;115.67;52.60;;;;;;;-4.94;70.27;95245.23;1793467;80;22138;-54
2020/12/01 03:26:40;;;;;;;79.65;36.80;;;;;;;-5.01;70.67;95241.00;1793401;79;21514;-55
2020/12/01 03:29:08;;;;;;;75.92;35.88;;;;;;;-5.00;70.59;95238.55;1773514;80;21104;-54
2020/12/01 03:31:36;;;;;;;85.12;42.85;;;;;;;-5.04;70.46;95242.99;1773144;81;21186;-55
2020/12/01 03:34:04;;;;;;;79.58;43.80;;;;;;;-5.06;70.62;95238.53;1773249;81;21179;-55
2020/12/01 03:36:32;;;;;;;122.95;56.18;;;;;;;-4.99;70.93;95227.45;1773127;81;21195;-54
2020/12/01 03:39:00;;;;;;;109.07;52.08;;;;;;;-4.83;70.78;95234.27;1773204;81;21525;-54
2020/12/01 03:41:28;;;;;;;106.15;49.05;;;;;;;-4.76;70.61;95234.47;1773217;81;21124;-55
2020/12/01 03:43:56;;;;;;;88.97;43.52;;;;;;;-4.66;70.78;95228.62;1773260;81;21140;-54
2020/12/01 03:46:23;;;;;;;142.43;70.95;;;;;;;-4.48;70.44;95228.56;1773286;81;21061;-54
2020/12/01 03:48:51;;;;;;;154.00;79.32;;;;;;;-4.44;70.56;95234.84;1773281;81;22050;-54
2020/12/01 03:51:19;;;;;;;151.30;77.90;;;;;;;-4.39;70.79;95238.62;1773146;81;21072;-54
2020/12/01 03:53:47;;;;;;;130.65;66.33;;;;;;;-4.18;70.74;95234.63;1773326;81;21120;-54
2020/12/01 03:56:15;;;;;;;105.70;56.98;;;;;;;-4.03;70.24;95234.45;1773263;81;21112;-55
2020/12/01 03:58:43;;;;;;;87.00;47.08;;;;;;;-3.93;70.17;95233.94;1773453;81;21480;-54
2020/12/01 04:01:11;;;;;;;79.12;42.60;;;;;;;-3.79;69.89;95225.70;1773329;81;22262;-53
2020/12/01 04:03:39;;;;;;;93.40;46.53;;;;;;;-3.70;69.55;95224.20;1773157;80;21080;-55
2020/12/01 04:06:07;;;;;;;83.12;42.95;;;;;;;-3.67;69.22;95224.84;1773235;81;21147;-55
2020/12/01 04:08:35;;;;;;;78.05;42.08;;;;;;;-3.68;68.95;95231.34;1773289;81;21602;-53
2020/12/01 04:11:05;;;;;;;82.47;44.93;;;;;;;-3.67;69.13;95228.88;1773258;81;21123;-54
2020/12/01 04:13:33;;;;;;;63.70;34.08;;;;;;;-3.57;68.74;95227.00;1773566;81;21207;-54
2020/12/01 04:16:02;;;;;;;60.70;33.30;;;;;;;-3.51;68.61;95235.27;1773843;81;21512;-56
2020/12/01 04:18:30;;;;;;;65.35;35.10;;;;;;;-3.41;68.11;95225.31;1773883;81;21505;-54
2020/12/01 04:20:58;;;;;;;55.73;31.97;;;;;;;-3.37;67.95;95221.38;1773786;81;21151;-55
2020/12/01 04:23:25;;;;;;;77.22;39.85;;;;;;;-3.34;67.81;95228.20;1773780;81;21202;-55
2020/12/01 04:25:53;;;;;;;98.03;50.38;;;;;;;-3.40;67.90;95229.56;1773767;81;21382;-55
2020/12/01 04:28:21;;;;;;;107.83;55.40;;;;;;;-3.45;68.11;95231.18;1773699;80;21076;-54
2020/12/01 04:30:49;;;;;;;101.27;53.75;;;;;;;-3.38;68.41;95228.66;1773766;81;21064;-56
2020/12/01 04:33:17;;;;;;;83.85;46.20;;;;;;;-3.20;68.43;95215.64;1773732;81;21128;-56
2020/12/01 04:35:44;;;;;;;69.25;39.18;;;;;;;-3.02;68.02;95215.49;1773841;81;21631;-56
2020/12/01 04:38:12;;;;;;;52.98;31.70;;;;;;;-2.91;67.79;95217.30;1773853;81;21202;-56
2020/12/01 04:40:40;;;;;;;38.65;23.00;;;;;;;-2.75;67.31;95223.98;1773805;81;21534;-54
2020/12/01 04:43:38;;;;;;;39.13;22.85;;;;;;;-2.61;66.17;95217.01;1750122;81;21123;-62
2020/12/01 04:46:06;;;;;;;33.60;20.77;;;;;;;-2.62;65.64;95224.88;1773720;81;21135;-61
2020/12/01 04:48:42;;;;;;;33.75;21.45;;;;;;;-2.73;65.36;95226.55;1725730;81;21179;-59
2020/12/01 04:51:40;;;;;;;33.85;20.27;;;;;;;-2.90;65.31;95224.81;1773290;80;21464;-58
2020/12/01 04:54:56;;;;;;;31.85;19.90;;;;;;;-2.95;65.54;95223.16;1773690;81;21115;-59
2020/12/01 04:57:47;;;;;;;40.28;23.30;;;;;;;-3.00;65.47;95231.52;1773791;80;21179;-58
2020/12/01 05:00:23;;;;;;;30.32;19.90;;;;;;;-3.17;65.73;95220.33;1773876;81;21651;-58
2020/12/01 05:03:18;;;;;;;29.00;20.40;;;;;;;-3.21;65.95;95226.96;1773424;80;21084;-55
2020/12/01 05:08:58;;;;;;;29.37;19.82;;;;;;;-3.18;66.24;95222.25;1873861;75;22366;-56
2020/12/01 05:11:53;;;;;;;30.77;19.87;;;;;;;-3.14;66.31;95229.83;1841809;77;20951;-58
2020/12/01 05:14:35;;;;;;;30.88;19.62;;;;;;;-3.12;66.19;95216.81;1841797;78;21343;-55
2020/12/01 05:17:47;;;;;;;29.12;21.15;;;;;;;-3.09;66.42;95218.80;1841581;78;21010;-54
2020/12/01 05:20:18;;;;;;;26.33;18.67;;;;;;;-3.07;66.14;95218.46;1841729;78;21026;-54
2020/12/01 05:22:50;;;;;;;29.07;19.40;;;;;;;-3.12;65.98;95229.47;1841584;78;20908;-54
2020/12/01 05:25:22;;;;;;;35.17;23.98;;;;;;;-3.14;66.03;95224.45;1841901;78;21061;-54
2020/12/01 05:28:11;;;;;;;33.48;21.12;;;;;;;-3.06;66.10;95221.37;1816508;77;21316;-56
2020/12/01 05:30:41;;;;;;;32.70;22.58;;;;;;;-2.94;65.97;95216.66;1808427;78;21025;-55
2020/12/01 05:33:25;;;;;;;37.80;21.50;;;;;;;-2.86;65.79;95230.47;1808650;79;21470;-56
2020/12/01 05:36:18;;;;;;;28.92;18.65;;;;;;;-2.86;65.48;95221.05;1778398;79;21073;-54
2020/12/01 05:39:13;;;;;;;31.77;21.52;;;;;;;-2.93;65.43;95221.45;1802283;79;21089;-54
2020/12/01 05:41:43;;;;;;;40.10;23.27;;;;;;;-3.03;65.48;95225.47;1808694;78;22243;-55
2020/12/01 05:44:24;;;;;;;35.20;21.97;;;;;;;-3.12;65.58;95221.39;1808534;79;21145;-55
2020/12/01 05:47:11;;;;;;;121.13;49.83;;;;;;;-3.10;65.57;95228.55;1808507;79;21193;-55
2020/12/01 05:49:54;;;;;;;105.80;41.77;;;;;;;-3.08;65.82;95227.66;1808606;79;21624;-56
2020/12/01 05:52:29;;;;;;;;;;;;;;;-3.09;65.52;95225.52;1809961;79;21588;-54
2020/12/01 05:55:23;;;;;;;71.57;34.63;;;;;;;-3.13;65.35;95219.28;1808522;79;21933;-54
2020/12/01 05:57:59;;;;;;;56.73;34.27;;;;;;;-3.05;65.11;95225.03;1808496;79;21108;-54
2020/12/01 06:00:33;;;;;;;63.85;30.45;;;;;;;-2.94;64.96;95219.34;1808213;79;21521;-55
2020/12/01 06:03:29;;;;;;;112.40;41.02;;;;;;;-2.86;64.45;95215.67;1808486;79;21164;-55
2020/12/01 06:05:58;;;;;;;104.97;45.83;;;;;;;-2.89;64.31;95221.76;1808506;79;21473;-56
2020/12/01 06:08:52;;;;;;;58.55;32.05;;;;;;;-2.88;64.41;95216.59;1808407;77;22234;-55
2020/12/01 06:11:39;;;;;;;70.40;34.30;;;;;;;-2.80;64.67;95222.91;1808393;78;21202;-57
2020/12/01 06:14:18;;;;;;;67.90;39.67;;;;;;;-2.78;64.82;95225.48;1774172;79;21066;-56
2020/12/01 06:16:54;;;;;;;27.30;18.37;;;;;;;-2.69;64.56;95221.25;1808502;79;21073;-56
2020/12/01 06:19:30;;;;;;;29.00;17.87;;;;;;;-2.70;63.86;95227.18;1808094;79;21537;-55
2020/12/01 06:22:22;;;;;;;20.10;16.37;;;;;;;-2.74;63.29;95225.53;1807855;78;21208;-55
2020/12/01 06:25:25;;;;;;;19.25;15.55;;;;;;;-2.77;63.32;95231.63;1807821;78;21157;-57
2020/12/01 06:28:35;;;;;;;28.23;17.65;;;;;;;-2.74;63.30;95230.92;1808093;78;21129;-59
2020/12/01 06:31:27;;;;;;;27.60;17.15;;;;;;;-2.79;62.97;95226.61;1807753;78;21789;-58
2020/12/01 06:34:36;;;;;;;18.48;14.10;;;;;;;-2.79;62.50;95228.51;1807858;79;21053;-58
2020/12/01 06:37:42;;;;;;;22.55;17.10;;;;;;;-2.75;62.10;95232.84;1807769;78;21195;-57
2020/12/01 06:40:24;;;;;;;19.90;14.87;;;;;;;-2.65;62.07;95237.67;1791703;79;21153;-57
2020/12/01 06:42:56;;;;;;;20.50;16.03;;;;;;;-2.58;61.91;95235.15;1781671;78;21135;-59
2020/12/01 06:45:42;;;;;;;21.75;14.60;;;;;;;-2.58;61.43;95239.19;1774862;79;21507;-57
2020/12/01 06:48:20;;;;;;;23.60;16.62;;;;;;;-2.65;61.55;95243.05;1781076;79;21201;-57
2020/12/01 06:50:53;;;;;;;22.27;14.98;;;;;;;-2.74;61.53;95233.61;1772385;79;21065;-57
2020/12/01 06:53:31;;;;;;;39.15;22.30;;;;;;;-2.78;61.49;95241.62;1728090;82;21155;-57
2020/12/01 06:56:07;;;;;;;41.15;25.27;;;;;;;-2.82;61.87;95244.81;1775108;80;21178;-58
2020/12/01 06:58:39;;;;;;;30.97;20.72;;;;;;;-2.81;62.05;95231.56;1748814;80;21496;-56
2020/12/01 07:01:28;;;;;;;47.13;27.82;;;;;;;-2.68;61.75;95234.34;1750592;80;21153;-60
2020/12/01 07:04:07;;;;;;;44.45;24.67;;;;;;;-2.60;61.31;95229.34;1750632;80;21148;-57
2020/12/01 07:06:44;;;;;;;32.08;18.80;;;;;;;-2.59;61.24;95233.59;1755923;80;21118;-61
2020/12/01 07:09:19;;;;;;;27.40;16.97;;;;;;;-2.58;60.91;95231.11;1732310;82;21553;-55
2020/12/01 07:12:18;;;;;;;20.50;15.28;;;;;;;-2.65;60.87;95234.98;1767661;81;21075;-58
2020/12/01 07:15:05;;;;;;;26.82;17.85;;;;;;;-2.68;60.73;95237.03;1721500;82;21526;-58
2020/12/01 07:17:51;;;;;;;23.45;17.20;;;;;;;-2.76;61.08;95235.33;1767523;80;22182;-58
2020/12/01 07:21:01;;;;;;;34.45;21.23;;;;;;;-2.72;61.27;95238.87;1727489;82;21184;-58
2020/12/01 07:23:56;;;;;;;29.65;20.45;;;;;;;-2.55;61.22;95228.29;1767084;81;21141;-59
2020/12/01 07:26:57;;;;;;;19.45;15.88;;;;;;;-2.50;60.98;95226.08;1767704;80;21263;-58
2020/12/01 07:29:55;;;;;;;31.33;22.93;;;;;;;-2.41;60.76;95234.75;1766325;79;21506;-59
2020/12/01 07:32:31;;;;;;;22.30;18.30;;;;;;;-2.40;60.49;95236.86;1760999;79;21456;-57
2020/12/01 07:35:18;;;;;;;26.87;17.82;;;;;;;-2.41;60.47;95240.13;1765352;79;21586;-58
2020/12/01 07:38:11;;;;;;;31.73;21.37;;;;;;;-2.31;60.53;95234.17;1744833;79;21200;-60
2020/12/01 07:40:49;;;;;;;21.43;14.70;;;;;;;-2.14;60.24;95235.09;1750080;80;21646;-59
2020/12/01 07:43:20;;;;;;;27.22;17.50;;;;;;;-2.05;59.90;95234.33;1714169;82;21420;-57
2020/12/01 07:45:50;;;;;;;28.07;17.90;;;;;;;-2.11;59.75;95232.28;1748446;81;22257;-59
2020/12/01 07:48:25;;;;;;;27.13;18.15;;;;;;;-2.23;59.84;95229.71;1734371;81;21174;-60
2020/12/01 07:51:15;;;;;;;27.02;19.40;;;;;;;-2.37;60.10;95231.55;1750687;81;21169;-61
2020/12/01 07:53:46;;;;;;;38.80;21.27;;;;;;;-2.43;60.35;95234.88;1747118;80;21601;-61
2020/12/01 07:56:17;;;;;;;47.83;25.80;;;;;;;-2.49;60.71;95226.29;1740829;81;21162;-60
2020/12/01 07:59:09;;;;;;;28.80;19.23;;;;;;;-2.49;61.09;95224.94;1740218;81;22275;-58
2020/12/01 08:01:43;;;;;;;36.35;23.05;;;;;;;-2.48;61.27;95218.42;1766715;80;21563;-59
2020/12/01 08:04:20;;;;;;;34.15;20.57;;;;;;;-2.40;61.24;95223.39;1765920;81;21189;-62
2020/12/01 08:07:04;;;;;;;68.40;35.43;;;;;;;-2.27;61.04;95224.83;1691375;84;21179;-62
2020/12/01 08:09:34;;;;;;;56.40;30.00;;;;;;;-2.17;60.80;95216.19;1678633;83;21242;-65
2020/12/01 08:12:06;;;;;;;41.55;24.65;;;;;;;-2.11;60.45;95212.83;1684221;85;21701;-59
2020/12/01 08:14:35;;;;;;;46.80;27.37;;;;;;;-2.14;60.48;95218.94;1683828;84;21144;-61
2020/12/01 08:17:14;;;;;;;51.48;29.07;;;;;;;-2.22;60.38;95217.25;1683888;84;21199;-62
2020/12/01 08:19:44;;;;;;;38.50;22.37;;;;;;;-2.21;60.66;95218.80;1656422;86;21652;-60
2020/12/01 08:22:11;;;;;;;45.30;27.45;;;;;;;-2.10;60.79;95219.77;1644838;87;21168;-60
2020/12/01 08:24:42;;;;;;;46.68;26.70;;;;;;;-1.98;60.39;95210.20;1587354;88;22140;-60
2020/12/01 08:27:23;;;;;;;64.00;36.23;;;;;;;-1.85;60.18;95217.56;1655116;85;21693;-58
2020/12/01 08:29:52;;;;;;;55.60;32.17;;;;;;;-1.77;59.92;95206.00;1661117;85;21694;-57
2020/12/01 08:32:43;;;;;;;54.73;33.33;;;;;;;-1.70;60.22;95209.39;1702664;81;21186;-58
2020/12/01 08:35:41;;;;;;;44.80;28.20;;;;;;;-1.58;59.94;95203.81;1897162;75;22474;-61
2020/12/01 08:39:00;;;;;;;40.43;27.42;;;;;;;-1.47;59.55;95206.13;1681401;82;21618;-61
2020/12/01 08:41:56;;;;;;;49.98;30.80;;;;;;;-1.31;59.24;95192.72;1703975;84;21278;-60
2020/12/01 08:44:48;;;;;;;36.73;24.32;;;;;;;-1.24;59.41;95188.01;1675856;85;21234;-64
2020/12/01 08:47:23;;;;;;;48.85;29.90;;;;;;;-1.02;59.07;95187.19;1673684;85;21186;-61
2020/12/01 08:49:52;;;;;;;22.75;16.05;;;;;;;-0.75;59.18;95184.13;1675875;85;21250;-63
2020/12/01 08:52:41;;;;;;;50.15;30.15;;;;;;;-0.42;58.58;95180.73;1647332;85;21274;-60
2020/12/01 08:55:37;;;;;;;35.92;22.58;;;;;;;-0.21;58.20;95180.99;1672670;85;22338;-58
2020/12/01 08:58:23;;;;;;;39.15;20.45;;;;;;;-0.11;57.75;95181.67;1647322;87;21112;-60
2020/12/01 09:01:12;;;;;;;44.03;27.27;;;;;;;-0.20;57.79;95180.61;1675950;84;21168;-59
2020/12/01 09:03:56;;;;;;;38.67;23.15;;;;;;;-0.18;58.17;95177.55;1675823;84;21150;-59
2020/12/01 09:06:35;;;;;;;38.15;25.35;;;;;;;0.12;58.15;95173.64;1646856;85;21230;-61
2020/12/01 09:09:17;;;;;;;50.00;31.75;;;;;;;0.60;57.35;95171.99;1692426;84;22274;-61
2020/12/01 09:12:06;;;;;;;48.52;31.55;;;;;;;1.05;56.19;95167.54;1646940;87;21103;-61
2020/12/01 09:17:54;;;;;;;39.25;26.65;;;;;;;1.75;54.71;95153.05;1750590;80;21136;-65
2020/12/01 09:23:18;;;;;;;37.88;23.40;;;;;;;2.30;53.72;95151.69;1765398;81;22323;-59
2020/12/01 09:25:46;;;;;;;29.18;18.67;;;;;;;2.68;53.27;95149.61;1773417;80;21182;-60
2020/12/01 09:28:19;;;;;;;28.92;19.48;;;;;;;3.11;52.14;95147.08;1731140;81;21114;-56
2020/12/01 09:30:47;;;;;;;30.43;21.13;;;;;;;3.21;51.04;95144.95;1733669;82;21240;-57
2020/12/01 09:33:19;;;;;;;36.93;25.17;;;;;;;2.98;51.55;95143.20;1719154;82;21184;-61
2020/12/01 09:35:47;;;;;;;29.80;20.52;;;;;;;3.00;51.51;95134.06;1693903;83;22096;-56
2020/12/01 09:38:15;;;;;;;49.50;27.87;;;;;;;3.35;50.87;95132.67;1710691;83;21104;-61
2020/12/01 09:40:46;;;;;;;41.75;26.85;;;;;;;3.45;50.27;95125.08;1710515;83;21196;-60
2020/12/01 09:43:35;;;;;;;45.48;29.50;;;;;;;3.32;50.40;95128.02;1710560;83;21191;-64
2020/12/01 09:46:04;;;;;;;45.00;28.25;;;;;;;3.22;50.63;95120.08;1709523;83;21223;-57
2020/12/01 09:48:33;;;;;;;39.70;25.27;;;;;;;3.14;50.50;95123.19;1709885;83;21267;-58
2020/12/01 09:50:59;;;;;;;36.55;24.23;;;;;;;2.85;50.87;95111.57;1700086;83;21226;-57
2020/12/01 09:53:57;;;;;;;43.08;25.15;;;;;;;2.55;51.95;95113.91;1735682;82;21748;-59
2020/12/01 10:12:29;;;;;;;27.40;18.85;;;;;;;3.82;49.87;95088.02;1816460;77;21174;-58
2020/12/01 10:24:29;;;;;;;35.17;24.15;;;;;;;4.35;48.53;95072.17;1815691;79;21192;-61
2020/12/01 10:26:09;;;;;;;65.85;42.83;;;;;;;4.61;48.72;95071.62;1830481;77;21365;-58
2020/12/01 10:36:26;;;;;;;43.87;26.52;;;;;;;5.75;46.75;95065.60;1814760;78;21244;-60
2020/12/01 10:38:54;;;;;;;28.95;20.45;;;;;;;6.08;45.21;95058.58;1814035;79;21422;-61
2020/12/01 10:41:30;;;;;;;19.62;15.50;;;;;;;6.38;45.66;95047.63;1814122;79;21194;-55
2020/12/01 10:43:57;;;;;;;24.00;18.32;;;;;;;6.71;44.60;95041.27;1813003;79;21201;-59
2020/12/01 10:46:25;;;;;;;23.00;17.52;;;;;;;7.12;43.79;95042.52;1815537;79;21223;-58
2020/12/01 10:48:54;;;;;;;20.27;14.93;;;;;;;7.57;43.22;95040.31;1814966;79;21181;-61
2020/12/01 10:51:23;;;;;;;20.88;13.55;;;;;;;7.77;42.28;95032.08;1815717;78;21211;-57
2020/12/01 10:56:29;;;;;;;14.65;11.88;;;;;;;8.37;41.31;95026.91;1888132;75;22673;-61
2020/12/01 10:58:57;;;;;;;14.45;11.50;;;;;;;8.26;41.30;95026.97;1774479;80;21096;-61
2020/12/01 11:01:25;;;;;;;14.58;11.93;;;;;;;8.19;41.00;95027.89;1773168;81;22172;-60
2020/12/01 11:03:54;;;;;;;18.73;13.83;;;;;;;8.08;41.48;95023.20;1771878;80;21222;-62
2020/12/01 11:06:22;;;;;;;17.67;13.40;;;;;;;8.08;41.49;95019.09;1761273;80;21167;-59
2020/12/01 11:08:52;;;;;;;20.27;14.43;;;;;;;8.14;41.21;95022.89;1746862;81;21117;-58
2020/12/01 11:13:47;;;;;;;17.98;13.83;;;;;;;8.27;41.46;95023.78;1742158;82;21882;-60
2020/12/01 11:16:18;;;;;;;19.55;13.50;;;;;;;8.32;40.72;95021.15;1774221;80;21106;-58
2020/12/01 11:18:46;;;;;;;15.90;12.85;;;;;;;8.33;41.29;95024.06;1774658;80;21094;-60
2020/12/01 11:21:14;;;;;;;34.27;14.63;;;;;;;8.66;40.93;95025.03;1774497;80;21687;-59
2020/12/01 11:23:42;;;;;;;23.47;17.57;;;;;;;9.12;39.83;95020.58;1774523;80;21145;-58
2020/12/01 11:26:14;;;;;;;18.15;14.35;;;;;;;9.48;38.64;95017.08;1774183;80;21204;-62
2020/12/01 11:28:42;;;;;;;15.15;12.45;;;;;;;9.88;38.46;95014.19;1774153;80;21093;-60
2020/12/01 11:31:10;;;;;;;14.23;10.60;;;;;;;10.39;37.38;95011.11;1774643;80;21062;-63
2020/12/01 11:33:40;;;;;;;14.13;10.55;;;;;;;10.66;37.39;95012.05;1774385;80;21089;-57
2020/12/01 11:36:08;;;;;;;15.98;12.70;;;;;;;10.89;36.88;95003.63;1774421;80;21501;-57
2020/12/01 11:38:36;;;;;;;20.20;12.45;;;;;;;11.25;36.47;95007.34;1774771;80;21549;-61
2020/12/01 11:41:07;;;;;;;17.75;13.18;;;;;;;11.57;35.23;95000.92;1774451;80;21168;-62
2020/12/01 11:43:36;;;;;;;17.55;12.05;;;;;;;11.87;34.98;95003.63;1773943;80;21184;-60
2020/12/01 11:46:05;;;;;;;32.93;21.40;;;;;;;12.29;33.99;94997.29;1772231;80;21147;-58
2020/12/01 11:48:33;;;;;;;18.48;14.35;;;;;;;12.38;33.79;94994.59;1815673;79;21637;-60
2020/12/01 11:51:01;;;;;;;17.62;13.43;;;;;;;12.39;33.96;94993.37;1815264;79;22253;-60
2020/12/01 11:53:29;;;;;;;18.12;13.08;;;;;;;12.62;33.48;94997.00;1815316;78;21168;-60
2020/12/01 11:55:58;;;;;;;32.03;20.95;;;;;;;12.85;33.30;94996.46;1814836;78;21584;-58
2020/12/01 11:58:26;;;;;;;24.63;19.10;;;;;;;12.91;33.31;94996.80;1773959;80;21155;-59
2020/12/01 12:00:55;;;;;;;23.83;17.60;;;;;;;12.82;33.35;94993.23;1815702;79;21570;-62
2020/12/01 12:03:23;;;;;;;20.12;15.70;;;;;;;12.70;33.18;94989.36;1815586;79;21856;-60
2020/12/01 12:05:51;;;;;;;18.90;14.03;;;;;;;12.80;32.99;94984.64;1815241;79;21694;-60
2020/12/01 12:08:21;;;;;;;16.12;13.60;;;;;;;13.06;32.87;94983.98;1814935;79;21224;-61
2020/12/01 12:10:50;;;;;;;17.07;12.93;;;;;;;13.08;32.34;94978.77;1822384;77;21088;-60
2020/12/01 12:13:18;;;;;;;19.20;14.50;;;;;;;13.03;32.06;94979.38;1838606;77;21127;-62
2020/12/01 12:15:48;;;;;;;17.75;13.58;;;;;;;13.12;32.04;94972.47;1848270;77;21177;-61
2020/12/01 12:18:17;;;;;;;21.65;16.10;;;;;;;13.26;31.77;94974.66;1848123;77;21060;-60
2020/12/01 12:20:46;;;;;;;23.25;16.50;;;;;;;13.27;32.06;94975.44;1795297;77;21110;-61
2020/12/01 12:23:14;;;;;;;24.63;18.48;;;;;;;13.15;31.79;94970.20;1821272;77;21163;-60
2020/12/01 12:25:43;;;;;;;23.90;18.30;;;;;;;13.11;32.04;94970.19;1820228;77;21542;-59
2020/12/01 12:28:14;;;;;;;33.20;17.48;;;;;;;13.21;31.53;94973.10;1802626;78;21139;-58
2020/12/01 12:30:45;;;;;;;18.98;14.20;;;;;;;13.24;31.45;94972.21;1834650;77;21179;-61
2020/12/01 12:33:15;;;;;;;20.75;15.83;;;;;;;13.12;31.00;94973.10;1812701;77;21159;-60
2020/12/01 12:35:51;;;;;;;24.10;16.77;;;;;;;12.75;31.37;94974.20;1818881;77;21118;-61
2020/12/01 12:38:21;;;;;;;24.52;16.20;;;;;;;12.61;31.56;94967.86;1822932;77;21139;-60
2020/12/01 12:40:51;;;;;;;22.55;16.67;;;;;;;12.41;31.72;94968.09;1818380;78;21192;-66